Main page
METAR-TAF:

METAR-TAF

Airports :

Donegal Airport

Donegal, Ireland

latitude: 55-02-39N, longitude: 8-20-28W, elevation: 9 m

Current weather observation

The report was made 17 minutes ago, at 18:30 UTC
Wind 22 kt from the West/Northwest
Temperature 8°C
Humidity 76%
Pressure 1020 hPa
Visibility 10 km or more
Few clouds at a height of 3400 ft
Overcast at a height of 4800 ft

METAR: EIDL 291830Z 29022KT 9999 FEW034 OVC048 08/04 Q1020

Time: 18:47 (18:47 UTC)

Forecast

The report was made 1 hour and 47 minutes ago, at 17:00 UTC
Forecast valid from 29 at 18 UTC to 30 at 03 UTC
Wind 20 kt from the West/Northwest with gusts up to 30 kt
Visibility 10 km or more
Few clouds at a height of 2500 ft
Broken clouds at a height of 4000 ft

TAF: EIDL 291700Z 2918/3003 29020G30KT 9999 FEW025 BKN040

Weather observations and forecasts of more than 4000 airports (METAR and TAF reports).

The available stations are represented by yellow and red dots on the map.

Hover mouse over dot to see the name of the station.

Then click to see weather observations and forecasts.

To change the map : click on the green buttons with a black cross to zoom in, on the green button with a dash to zoom out, or on the green arrows for adjacent maps.


METAR-TAF: